Portada
METAR-TAF:

METAR-TAF

Aeroports :

Accra, Ghana

latitud: 05-36N, longitud: 000-10W, altitud: 68 m

Observació

L'informe es va fer fa 45 minuts, a les 15:00 UTC
Vent 14 kt del Sud
Temperatura 32°C
Humitat 67%
Pressió 1009 hPa
Visibilitat: 3000 m
calitja

METAR: DGAA 181500Z 19014KT 3000 HZ NSC 32/25 Q1009 NOSIG

Hora: 15:45 (15:45 UTC)

Pronòstic

L'informe es va fer fa 4 hores i 45 minuts, a les 11:00 UTC
Pronòstic vàlid del 18 a les 12 UTC al 19 a les 18 UTC
Vent 14 kt del Sud
Visibilitat: 3000 m
calitja
Evolucionant progressivament
l' 18 a les 18 UTC al 18 a les 20 UTC
Visibilitat: 5000 m
boirina
Evolucionant progressivament
l' 19 a les 02 UTC al 19 a les 04 UTC
Vent 5 kt del Oest

TAF: DGAA 181100Z 1812/1918 19014KT 3000 HZ BECMG 1818/1820 5000 BR BECMG 1902/1904 26005KT

Observacions i pronòstics meteorològics de més de 4000 aeroports (METAR i TAF).

Les estacions disponibles són els punts grocs i vermells al mapa.

Posi el ratolí al punt desitjat per veure el nom de l'estació.

Feu clic per veure les observacions i els pronòstics meteorològics.

Per canviar el mapa: feu clic els botons verds amb una creu de color negre per apropar; al botó verd amb un guió per allunyar la imatge; o en les fletxes verdes per a mapes adjacents.


METAR-TAF: